sensor_id;sensor_type;location;lat;lon;timestamp;temperature;humidity
1083;DHT22;530;51.448;7.238;2022-09-16T00:00:30;13.90;99.90
1083;DHT22;530;51.448;7.238;2022-09-16T00:02:56;13.80;99.90
1083;DHT22;530;51.448;7.238;2022-09-16T00:05:23;13.90;99.90
1083;DHT22;530;51.448;7.238;2022-09-16T00:07:49;13.90;99.90
1083;DHT22;530;51.448;7.238;2022-09-16T00:10:15;13.90;99.90
1083;DHT22;530;51.448;7.238;2022-09-16T00:12:41;13.90;99.90
1083;DHT22;530;51.448;7.238;2022-09-16T00:15:07;13.90;99.90
1083;DHT22;530;51.448;7.238;2022-09-16T00:17:33;13.90;99.90
1083;DHT22;530;51.448;7.238;2022-09-16T00:19:59;13.90;99.90
1083;DHT22;530;51.448;7.238;2022-09-16T00:22:27;13.90;99.90
1083;DHT22;530;51.448;7.238;2022-09-16T00:24:53;13.80;99.90
1083;DHT22;530;51.448;7.238;2022-09-16T00:27:19;13.80;99.90
1083;DHT22;530;51.448;7.238;2022-09-16T00:29:44;13.70;99.90
1083;DHT22;530;51.448;7.238;2022-09-16T00:32:10;13.80;99.90
1083;DHT22;530;51.448;7.238;2022-09-16T00:34:37;13.80;99.90
1083;DHT22;530;51.448;7.238;2022-09-16T00:37:03;13.80;99.90
1083;DHT22;530;51.448;7.238;2022-09-16T00:39:29;13.80;99.90
1083;DHT22;530;51.448;7.238;2022-09-16T00:41:55;13.80;99.90
1083;DHT22;530;51.448;7.238;2022-09-16T00:44:54;13.70;99.90
1083;DHT22;530;51.448;7.238;2022-09-16T00:47:24;13.70;99.90
1083;DHT22;530;51.448;7.238;2022-09-16T00:49:55;13.70;99.90
1083;DHT22;530;51.448;7.238;2022-09-16T00:52:24;13.70;99.90
1083;DHT22;530;51.448;7.238;2022-09-16T00:54:51;13.60;99.90
1083;DHT22;530;51.448;7.238;2022-09-16T00:57:17;13.70;99.90
1083;DHT22;530;51.448;7.238;2022-09-16T00:59:46;13.80;99.90
1083;DHT22;530;51.448;7.238;2022-09-16T01:02:16;13.80;99.90
1083;DHT22;530;51.448;7.238;2022-09-16T01:04:53;13.80;99.90
1083;DHT22;530;51.448;7.238;2022-09-16T01:07:30;13.80;99.90
1083;DHT22;530;51.448;7.238;2022-09-16T01:09:57;13.90;99.90
1083;DHT22;530;51.448;7.238;2022-09-16T01:12:23;13.90;99.90
1083;DHT22;530;51.448;7.238;2022-09-16T01:14:51;13.80;99.90
1083;DHT22;530;51.448;7.238;2022-09-16T01:17:27;13.80;99.90
1083;DHT22;530;51.448;7.238;2022-09-16T01:23:16;13.90;99.90
1083;DHT22;530;51.448;7.238;2022-09-16T01:31:00;13.80;99.90
1083;DHT22;530;51.448;7.238;2022-09-16T01:44:28;13.50;99.90
1083;DHT22;530;51.448;7.238;2022-09-16T01:49:58;13.50;99.90
1083;DHT22;530;51.448;7.238;2022-09-16T01:55:22;13.50;99.90
1083;DHT22;530;51.448;7.238;2022-09-16T01:57:54;13.50;99.90
1083;DHT22;530;51.448;7.238;2022-09-16T02:00:22;13.60;99.90
1083;DHT22;530;51.448;7.238;2022-09-16T02:02:59;13.60;99.90
1083;DHT22;530;51.448;7.238;2022-09-16T02:08:21;13.70;99.90
1083;DHT22;530;51.448;7.238;2022-09-16T02:10:51;13.80;99.90
1083;DHT22;530;51.448;7.238;2022-09-16T02:13:27;13.80;99.90
1083;DHT22;530;51.448;7.238;2022-09-16T02:15:57;13.80;99.90
1083;DHT22;530;51.448;7.238;2022-09-16T02:18:28;13.80;99.90
1083;DHT22;530;51.448;7.238;2022-09-16T02:20:56;13.80;99.90
1083;DHT22;530;51.448;7.238;2022-09-16T02:23:26;13.80;99.90
1083;DHT22;530;51.448;7.238;2022-09-16T02:25:54;13.80;99.90
1083;DHT22;530;51.448;7.238;2022-09-16T02:28:31;13.90;99.90
1083;DHT22;530;51.448;7.238;2022-09-16T02:31:01;13.80;99.90
1083;DHT22;530;51.448;7.238;2022-09-16T02:33:35;13.70;99.90
1083;DHT22;530;51.448;7.238;2022-09-16T02:36:03;13.70;99.90
1083;DHT22;530;51.448;7.238;2022-09-16T02:38:41;13.70;99.90
1083;DHT22;530;51.448;7.238;2022-09-16T02:41:08;13.70;99.90
1083;DHT22;530;51.448;7.238;2022-09-16T02:43:42;13.60;99.90
1083;DHT22;530;51.448;7.238;2022-09-16T02:46:31;13.70;99.90
1083;DHT22;530;51.448;7.238;2022-09-16T02:55:09;13.80;99.90
1083;DHT22;530;51.448;7.238;2022-09-16T02:57:37;13.70;99.90
1083;DHT22;530;51.448;7.238;2022-09-16T03:00:04;13.70;99.90
1083;DHT22;530;51.448;7.238;2022-09-16T03:02:32;13.60;99.90
1083;DHT22;530;51.448;7.238;2022-09-16T03:04:59;13.60;99.90
1083;DHT22;530;51.448;7.238;2022-09-16T03:07:25;13.50;99.90
1083;DHT22;530;51.448;7.238;2022-09-16T03:09:51;13.50;99.90
1083;DHT22;530;51.448;7.238;2022-09-16T03:12:44;13.60;99.90
1083;DHT22;530;51.448;7.238;2022-09-16T03:19:17;13.70;99.90
1083;DHT22;530;51.448;7.238;2022-09-16T03:21:56;13.60;99.90
1083;DHT22;530;51.448;7.238;2022-09-16T03:27:11;13.60;99.90
1083;DHT22;530;51.448;7.238;2022-09-16T03:32:26;13.50;99.90
1083;DHT22;530;51.448;7.238;2022-09-16T03:35:08;13.50;99.90
1083;DHT22;530;51.448;7.238;2022-09-16T03:37:37;13.40;99.90
1083;DHT22;530;51.448;7.238;2022-09-16T03:40:12;13.50;99.90
1083;DHT22;530;51.448;7.238;2022-09-16T03:42:42;13.50;99.90
1083;DHT22;530;51.448;7.238;2022-09-16T03:45:15;13.50;99.90
1083;DHT22;530;51.448;7.238;2022-09-16T03:47:42;13.50;99.90
1083;DHT22;530;51.448;7.238;2022-09-16T03:50:09;13.40;99.90
1083;DHT22;530;51.448;7.238;2022-09-16T03:52:34;13.30;99.90
1083;DHT22;530;51.448;7.238;2022-09-16T03:55:00;13.40;99.90
1083;DHT22;530;51.448;7.238;2022-09-16T03:57:25;13.30;99.90
1083;DHT22;530;51.448;7.238;2022-09-16T03:59:52;13.30;99.90
1083;DHT22;530;51.448;7.238;2022-09-16T04:02:18;13.30;99.90
1083;DHT22;530;51.448;7.238;2022-09-16T04:04:44;13.30;99.90
1083;DHT22;530;51.448;7.238;2022-09-16T04:07:09;13.40;99.90
1083;DHT22;530;51.448;7.238;2022-09-16T04:09:35;13.40;99.90
1083;DHT22;530;51.448;7.238;2022-09-16T04:12:02;13.40;99.90
1083;DHT22;530;51.448;7.238;2022-09-16T04:14:28;13.40;99.90
1083;DHT22;530;51.448;7.238;2022-09-16T04:16:54;13.40;99.90
1083;DHT22;530;51.448;7.238;2022-09-16T04:19:19;13.40;99.90
1083;DHT22;530;51.448;7.238;2022-09-16T04:21:45;13.40;99.90
1083;DHT22;530;51.448;7.238;2022-09-16T04:24:11;13.40;99.90
1083;DHT22;530;51.448;7.238;2022-09-16T04:26:37;13.40;99.90
1083;DHT22;530;51.448;7.238;2022-09-16T04:29:03;13.40;99.90
1083;DHT22;530;51.448;7.238;2022-09-16T04:31:29;13.40;99.90
1083;DHT22;530;51.448;7.238;2022-09-16T04:33:54;13.30;99.90
1083;DHT22;530;51.448;7.238;2022-09-16T04:36:20;13.30;99.90
1083;DHT22;530;51.448;7.238;2022-09-16T04:38:47;13.30;99.90
1083;DHT22;530;51.448;7.238;2022-09-16T04:41:16;13.30;99.90
1083;DHT22;530;51.448;7.238;2022-09-16T04:43:43;13.40;99.90
1083;DHT22;530;51.448;7.238;2022-09-16T04:46:09;13.30;99.90
1083;DHT22;530;51.448;7.238;2022-09-16T04:48:35;13.30;99.90
1083;DHT22;530;51.448;7.238;2022-09-16T04:51:09;13.30;99.90
1083;DHT22;530;51.448;7.238;2022-09-16T04:53:36;13.40;99.90
1083;DHT22;530;51.448;7.238;2022-09-16T04:56:04;13.40;99.90
1083;DHT22;530;51.448;7.238;2022-09-16T04:58:30;13.40;99.90
1083;DHT22;530;51.448;7.238;2022-09-16T05:01:01;13.40;99.90
1083;DHT22;530;51.448;7.238;2022-09-16T05:03:27;13.40;99.90
1083;DHT22;530;51.448;7.238;2022-09-16T05:05:53;13.40;99.90
1083;DHT22;530;51.448;7.238;2022-09-16T05:08:18;13.40;99.90
1083;DHT22;530;51.448;7.238;2022-09-16T05:10:44;13.40;99.90
1083;DHT22;530;51.448;7.238;2022-09-16T05:13:10;13.40;99.90
1083;DHT22;530;51.448;7.238;2022-09-16T05:15:36;13.40;99.90
1083;DHT22;530;51.448;7.238;2022-09-16T05:18:01;13.30;99.90
1083;DHT22;530;51.448;7.238;2022-09-16T05:20:27;13.20;99.90
1083;DHT22;530;51.448;7.238;2022-09-16T05:22:53;13.30;99.90
1083;DHT22;530;51.448;7.238;2022-09-16T05:25:19;13.30;99.90
1083;DHT22;530;51.448;7.238;2022-09-16T05:27:44;13.30;99.90
1083;DHT22;530;51.448;7.238;2022-09-16T05:30:10;13.40;99.90
1083;DHT22;530;51.448;7.238;2022-09-16T05:32:38;13.50;99.90
1083;DHT22;530;51.448;7.238;2022-09-16T05:35:04;13.50;99.90
1083;DHT22;530;51.448;7.238;2022-09-16T05:37:30;13.50;99.90
1083;DHT22;530;51.448;7.238;2022-09-16T05:39:55;13.40;99.90
1083;DHT22;530;51.448;7.238;2022-09-16T05:42:21;13.40;99.90
1083;DHT22;530;51.448;7.238;2022-09-16T05:44:47;13.40;99.90
1083;DHT22;530;51.448;7.238;2022-09-16T05:47:12;13.40;99.90
1083;DHT22;530;51.448;7.238;2022-09-16T05:49:39;13.30;99.90
1083;DHT22;530;51.448;7.238;2022-09-16T05:52:04;13.30;99.90
1083;DHT22;530;51.448;7.238;2022-09-16T05:54:30;13.20;99.90
1083;DHT22;530;51.448;7.238;2022-09-16T05:56:55;13.20;99.90
1083;DHT22;530;51.448;7.238;2022-09-16T05:59:21;13.30;99.90
1083;DHT22;530;51.448;7.238;2022-09-16T06:01:48;13.40;99.90
1083;DHT22;530;51.448;7.238;2022-09-16T06:04:14;13.40;99.90
1083;DHT22;530;51.448;7.238;2022-09-16T06:06:42;13.50;99.90
1083;DHT22;530;51.448;7.238;2022-09-16T06:09:20;13.60;99.90
1083;DHT22;530;51.448;7.238;2022-09-16T06:11:48;13.60;99.90
1083;DHT22;530;51.448;7.238;2022-09-16T06:14:15;13.60;99.90
1083;DHT22;530;51.448;7.238;2022-09-16T06:16:42;13.50;99.90
1083;DHT22;530;51.448;7.238;2022-09-16T06:19:13;13.60;99.90
1083;DHT22;530;51.448;7.238;2022-09-16T06:21:40;13.70;99.90
1083;DHT22;530;51.448;7.238;2022-09-16T06:24:07;13.70;99.90
1083;DHT22;530;51.448;7.238;2022-09-16T06:26:34;13.70;99.90
1083;DHT22;530;51.448;7.238;2022-09-16T06:28:59;13.70;99.90
1083;DHT22;530;51.448;7.238;2022-09-16T06:31:26;13.70;99.90
1083;DHT22;530;51.448;7.238;2022-09-16T06:33:54;13.70;99.90
1083;DHT22;530;51.448;7.238;2022-09-16T06:36:20;13.70;99.90
1083;DHT22;530;51.448;7.238;2022-09-16T06:38:47;13.70;99.90
1083;DHT22;530;51.448;7.238;2022-09-16T06:41:14;13.70;99.90
1083;DHT22;530;51.448;7.238;2022-09-16T06:43:40;13.70;99.90
1083;DHT22;530;51.448;7.238;2022-09-16T06:46:15;13.70;99.90
1083;DHT22;530;51.448;7.238;2022-09-16T06:48:42;13.70;99.90
1083;DHT22;530;51.448;7.238;2022-09-16T06:51:11;13.80;99.90
1083;DHT22;530;51.448;7.238;2022-09-16T06:53:37;13.80;99.90
1083;DHT22;530;51.448;7.238;2022-09-16T06:56:06;13.70;99.90
1083;DHT22;530;51.448;7.238;2022-09-16T06:58:33;13.70;99.90
1083;DHT22;530;51.448;7.238;2022-09-16T07:01:03;13.80;99.90
1083;DHT22;530;51.448;7.238;2022-09-16T07:03:29;13.80;99.90
1083;DHT22;530;51.448;7.238;2022-09-16T07:05:56;13.90;99.90
1083;DHT22;530;51.448;7.238;2022-09-16T07:08:22;13.90;99.90
1083;DHT22;530;51.448;7.238;2022-09-16T07:11:09;13.90;99.90
1083;DHT22;530;51.448;7.238;2022-09-16T07:13:35;13.90;99.90
1083;DHT22;530;51.448;7.238;2022-09-16T07:16:03;13.90;99.90
1083;DHT22;530;51.448;7.238;2022-09-16T07:18:29;13.90;99.90
1083;DHT22;530;51.448;7.238;2022-09-16T07:21:25;14.00;99.90
1083;DHT22;530;51.448;7.238;2022-09-16T07:23:55;14.00;99.90
1083;DHT22;530;51.448;7.238;2022-09-16T07:26:27;14.10;99.90
1083;DHT22;530;51.448;7.238;2022-09-16T07:28:54;14.20;99.90
1083;DHT22;530;51.448;7.238;2022-09-16T07:31:28;14.20;99.90
1083;DHT22;530;51.448;7.238;2022-09-16T07:33:56;14.30;99.90
1083;DHT22;530;51.448;7.238;2022-09-16T07:36:25;14.30;99.90
1083;DHT22;530;51.448;7.238;2022-09-16T07:38:53;14.40;99.90
1083;DHT22;530;51.448;7.238;2022-09-16T07:41:21;14.50;99.90
1083;DHT22;530;51.448;7.238;2022-09-16T07:43:48;14.50;99.90
1083;DHT22;530;51.448;7.238;2022-09-16T07:46:16;14.50;99.90
1083;DHT22;530;51.448;7.238;2022-09-16T07:48:44;14.50;99.90
1083;DHT22;530;51.448;7.238;2022-09-16T07:51:15;14.60;99.90
1083;DHT22;530;51.448;7.238;2022-09-16T07:53:41;14.60;99.90
1083;DHT22;530;51.448;7.238;2022-09-16T07:56:16;14.70;99.90
1083;DHT22;530;51.448;7.238;2022-09-16T07:58:44;14.90;99.90
1083;DHT22;530;51.448;7.238;2022-09-16T08:01:10;15.00;99.90
1083;DHT22;530;51.448;7.238;2022-09-16T08:03:37;15.10;99.90
1083;DHT22;530;51.448;7.238;2022-09-16T08:06:09;15.10;99.90
1083;DHT22;530;51.448;7.238;2022-09-16T08:08:35;15.10;99.90
1083;DHT22;530;51.448;7.238;2022-09-16T08:11:01;15.20;99.90
1083;DHT22;530;51.448;7.238;2022-09-16T08:13:30;15.30;99.90
1083;DHT22;530;51.448;7.238;2022-09-16T08:16:12;15.20;99.90
1083;DHT22;530;51.448;7.238;2022-09-16T08:18:38;15.10;99.90
1083;DHT22;530;51.448;7.238;2022-09-16T08:21:05;15.10;99.90
1083;DHT22;530;51.448;7.238;2022-09-16T08:23:33;15.10;99.90
1083;DHT22;530;51.448;7.238;2022-09-16T08:25:59;15.10;99.90
1083;DHT22;530;51.448;7.238;2022-09-16T08:28:26;15.10;99.90
1083;DHT22;530;51.448;7.238;2022-09-16T08:30:52;15.20;99.90
1083;DHT22;530;51.448;7.238;2022-09-16T08:33:17;15.30;99.90
1083;DHT22;530;51.448;7.238;2022-09-16T08:36:21;15.30;99.90
1083;DHT22;530;51.448;7.238;2022-09-16T08:38:49;15.30;99.90
1083;DHT22;530;51.448;7.238;2022-09-16T08:50:37;15.10;99.90
1083;DHT22;530;51.448;7.238;2022-09-16T08:53:53;15.20;99.90
1083;DHT22;530;51.448;7.238;2022-09-16T08:55:58;15.30;99.90
1083;DHT22;530;51.448;7.238;2022-09-16T08:58:43;15.40;99.90
1083;DHT22;530;51.448;7.238;2022-09-16T09:01:37;15.60;99.90
1083;DHT22;530;51.448;7.238;2022-09-16T09:04:05;15.70;99.90
1083;DHT22;530;51.448;7.238;2022-09-16T09:07:01;15.70;99.90
1083;DHT22;530;51.448;7.238;2022-09-16T09:34:18;16.60;99.90
1083;DHT22;530;51.448;7.238;2022-09-16T09:47:35;16.40;99.90
1083;DHT22;530;51.448;7.238;2022-09-16T09:50:35;16.40;99.90
1083;DHT22;530;51.448;7.238;2022-09-16T09:53:19;16.40;99.90
1083;DHT22;530;51.448;7.238;2022-09-16T09:55:53;16.40;99.90
1083;DHT22;530;51.448;7.238;2022-09-16T09:58:37;16.30;99.90
1083;DHT22;530;51.448;7.238;2022-09-16T10:01:05;16.30;99.90
1083;DHT22;530;51.448;7.238;2022-09-16T10:03:31;16.30;99.90
1083;DHT22;530;51.448;7.238;2022-09-16T10:05:57;16.40;99.90
1083;DHT22;530;51.448;7.238;2022-09-16T10:08:33;16.50;99.90
1083;DHT22;530;51.448;7.238;2022-09-16T10:11:02;16.40;99.90
1083;DHT22;530;51.448;7.238;2022-09-16T10:13:56;16.50;99.90
1083;DHT22;530;51.448;7.238;2022-09-16T10:16:34;16.50;99.90
1083;DHT22;530;51.448;7.238;2022-09-16T10:19:05;16.40;99.90
1083;DHT22;530;51.448;7.238;2022-09-16T10:21:43;16.50;99.90
1083;DHT22;530;51.448;7.238;2022-09-16T10:24:32;16.60;99.90
1083;DHT22;530;51.448;7.238;2022-09-16T10:26:59;16.60;99.90
1083;DHT22;530;51.448;7.238;2022-09-16T10:29:26;16.60;99.90
1083;DHT22;530;51.448;7.238;2022-09-16T10:31:52;16.60;99.90
1083;DHT22;530;51.448;7.238;2022-09-16T10:34:33;16.70;99.90
1083;DHT22;530;51.448;7.238;2022-09-16T10:37:01;16.60;99.90
1083;DHT22;530;51.448;7.238;2022-09-16T10:39:29;16.60;99.90
1083;DHT22;530;51.448;7.238;2022-09-16T10:41:55;16.50;99.90
1083;DHT22;530;51.448;7.238;2022-09-16T10:44:29;16.50;99.90
1083;DHT22;530;51.448;7.238;2022-09-16T10:47:05;16.70;99.90
1083;DHT22;530;51.448;7.238;2022-09-16T10:49:45;17.00;99.90
1083;DHT22;530;51.448;7.238;2022-09-16T10:54:48;17.20;99.90
1083;DHT22;530;51.448;7.238;2022-09-16T10:57:29;17.20;99.90
1083;DHT22;530;51.448;7.238;2022-09-16T11:00:59;17.20;99.90
1083;DHT22;530;51.448;7.238;2022-09-16T11:03:33;17.10;99.90
1083;DHT22;530;51.448;7.238;2022-09-16T11:19:17;17.30;99.90
1083;DHT22;530;51.448;7.238;2022-09-16T11:22:12;17.40;99.90
1083;DHT22;530;51.448;7.238;2022-09-16T11:25:28;17.50;99.90
1083;DHT22;530;51.448;7.238;2022-09-16T11:27:53;17.80;99.90
1083;DHT22;530;51.448;7.238;2022-09-16T11:30:22;18.10;99.90
1083;DHT22;530;51.448;7.238;2022-09-16T11:33:11;18.20;99.30
1083;DHT22;530;51.448;7.238;2022-09-16T11:43:59;18.30;99.90
1083;DHT22;530;51.448;7.238;2022-09-16T11:46:41;18.30;99.20
1083;DHT22;530;51.448;7.238;2022-09-16T11:49:38;18.40;99.90
1083;DHT22;530;51.448;7.238;2022-09-16T11:55:02;18.50;98.70
1083;DHT22;530;51.448;7.238;2022-09-16T11:57:37;18.50;98.10
1083;DHT22;530;51.448;7.238;2022-09-16T12:00:16;18.50;97.80
1083;DHT22;530;51.448;7.238;2022-09-16T12:02:50;18.40;97.00
1083;DHT22;530;51.448;7.238;2022-09-16T12:05:28;18.50;98.10
1083;DHT22;530;51.448;7.238;2022-09-16T12:10:50;18.80;97.00
1083;DHT22;530;51.448;7.238;2022-09-16T12:13:37;18.80;97.60
1083;DHT22;530;51.448;7.238;2022-09-16T12:16:16;18.50;97.80
1083;DHT22;530;51.448;7.238;2022-09-16T12:18:56;18.20;99.90
1083;DHT22;530;51.448;7.238;2022-09-16T12:21:31;17.90;99.90
1083;DHT22;530;51.448;7.238;2022-09-16T12:24:43;17.70;99.90
1083;DHT22;530;51.448;7.238;2022-09-16T12:26:56;17.40;99.70
1083;DHT22;530;51.448;7.238;2022-09-16T12:32:10;17.30;99.80
1083;DHT22;530;51.448;7.238;2022-09-16T12:34:45;17.50;99.90
1083;DHT22;530;51.448;7.238;2022-09-16T12:40:00;17.70;99.90
1083;DHT22;530;51.448;7.238;2022-09-16T12:56:38;16.90;99.90
1083;DHT22;530;51.448;7.238;2022-09-16T13:01:42;16.10;99.90
1083;DHT22;530;51.448;7.238;2022-09-16T13:06:45;15.60;99.90
1083;DHT22;530;51.448;7.238;2022-09-16T13:09:24;15.50;99.90
1083;DHT22;530;51.448;7.238;2022-09-16T13:11:57;15.50;99.90
1083;DHT22;530;51.448;7.238;2022-09-16T13:14:31;15.30;99.90
1083;DHT22;530;51.448;7.238;2022-09-16T13:16:59;15.00;99.90
1083;DHT22;530;51.448;7.238;2022-09-16T13:21:59;14.60;99.90
1083;DHT22;530;51.448;7.238;2022-09-16T13:24:29;14.40;99.90
1083;DHT22;530;51.448;7.238;2022-09-16T13:26:59;14.20;99.90
1083;DHT22;530;51.448;7.238;2022-09-16T13:29:45;14.10;99.90
1083;DHT22;530;51.448;7.238;2022-09-16T13:32:37;14.00;99.90
1083;DHT22;530;51.448;7.238;2022-09-16T13:35:36;14.00;99.90
1083;DHT22;530;51.448;7.238;2022-09-16T13:41:12;14.00;99.90
1083;DHT22;530;51.448;7.238;2022-09-16T13:46:09;13.70;99.90
1083;DHT22;530;51.448;7.238;2022-09-16T13:48:48;13.40;99.90
1083;DHT22;530;51.448;7.238;2022-09-16T13:51:20;13.40;99.90
1083;DHT22;530;51.448;7.238;2022-09-16T13:53:50;13.20;99.90
1083;DHT22;530;51.448;7.238;2022-09-16T14:07:17;13.10;99.90
1083;DHT22;530;51.448;7.238;2022-09-16T14:15:20;13.30;99.90
1083;DHT22;530;51.448;7.238;2022-09-16T14:17:50;13.30;99.90
1083;DHT22;530;51.448;7.238;2022-09-16T14:20:20;13.50;99.90
1083;DHT22;530;51.448;7.238;2022-09-16T14:22:46;13.70;99.90
1083;DHT22;530;51.448;7.238;2022-09-16T14:25:33;13.90;99.90
1083;DHT22;530;51.448;7.238;2022-09-16T14:28:16;14.10;99.90
1083;DHT22;530;51.448;7.238;2022-09-16T14:30:55;14.20;99.90
1083;DHT22;530;51.448;7.238;2022-09-16T14:33:28;14.30;99.90
1083;DHT22;530;51.448;7.238;2022-09-16T14:35:56;14.30;99.90
1083;DHT22;530;51.448;7.238;2022-09-16T14:38:45;14.50;99.90
1083;DHT22;530;51.448;7.238;2022-09-16T14:41:18;14.50;99.90
1083;DHT22;530;51.448;7.238;2022-09-16T14:43:46;14.60;99.90
1083;DHT22;530;51.448;7.238;2022-09-16T14:46:11;14.70;99.90
1083;DHT22;530;51.448;7.238;2022-09-16T14:48:39;14.60;99.90
1083;DHT22;530;51.448;7.238;2022-09-16T14:51:21;14.70;99.90
1083;DHT22;530;51.448;7.238;2022-09-16T14:54:14;14.80;99.90
1083;DHT22;530;51.448;7.238;2022-09-16T14:56:41;14.90;99.90
1083;DHT22;530;51.448;7.238;2022-09-16T14:59:10;14.90;99.90
1083;DHT22;530;51.448;7.238;2022-09-16T15:01:38;15.10;99.90
1083;DHT22;530;51.448;7.238;2022-09-16T15:04:16;15.20;99.90
1083;DHT22;530;51.448;7.238;2022-09-16T15:06:49;15.10;99.90
1083;DHT22;530;51.448;7.238;2022-09-16T15:12:31;15.10;99.90
1083;DHT22;530;51.448;7.238;2022-09-16T15:15:09;15.20;99.90
1083;DHT22;530;51.448;7.238;2022-09-16T15:17:40;15.10;99.90
1083;DHT22;530;51.448;7.238;2022-09-16T15:20:19;15.10;99.90
1083;DHT22;530;51.448;7.238;2022-09-16T15:22:45;15.00;99.90
1083;DHT22;530;51.448;7.238;2022-09-16T15:25:22;15.10;99.90
1083;DHT22;530;51.448;7.238;2022-09-16T15:27:49;15.20;99.90
1083;DHT22;530;51.448;7.238;2022-09-16T15:30:24;15.30;99.90
1083;DHT22;530;51.448;7.238;2022-09-16T15:32:50;15.20;99.90
1083;DHT22;530;51.448;7.238;2022-09-16T15:35:27;15.20;99.90
1083;DHT22;530;51.448;7.238;2022-09-16T15:37:54;15.10;99.90
1083;DHT22;530;51.448;7.238;2022-09-16T15:43:12;15.00;99.90
1083;DHT22;530;51.448;7.238;2022-09-16T15:45:38;15.00;99.90
1083;DHT22;530;51.448;7.238;2022-09-16T15:48:13;14.90;99.90
1083;DHT22;530;51.448;7.238;2022-09-16T15:50:48;14.80;99.90
1083;DHT22;530;51.448;7.238;2022-09-16T15:56:05;14.80;99.90
1083;DHT22;530;51.448;7.238;2022-09-16T15:58:36;14.80;99.90
1083;DHT22;530;51.448;7.238;2022-09-16T16:01:39;14.80;99.90
1083;DHT22;530;51.448;7.238;2022-09-16T16:04:08;14.80;99.90
1083;DHT22;530;51.448;7.238;2022-09-16T16:06:51;14.70;99.90
1083;DHT22;530;51.448;7.238;2022-09-16T16:09:27;14.80;99.90
1083;DHT22;530;51.448;7.238;2022-09-16T16:11:54;14.80;99.90
1083;DHT22;530;51.448;7.238;2022-09-16T16:14:21;14.60;99.90
1083;DHT22;530;51.448;7.238;2022-09-16T16:16:49;14.30;99.90
1083;DHT22;530;51.448;7.238;2022-09-16T16:19:14;14.00;99.90
1083;DHT22;530;51.448;7.238;2022-09-16T16:21:40;13.60;99.90
1083;DHT22;530;51.448;7.238;2022-09-16T16:24:14;13.30;99.90
1083;DHT22;530;51.448;7.238;2022-09-16T16:26:40;13.00;99.90
1083;DHT22;530;51.448;7.238;2022-09-16T16:29:06;12.90;99.90
1083;DHT22;530;51.448;7.238;2022-09-16T16:31:32;12.80;99.90
1083;DHT22;530;51.448;7.238;2022-09-16T16:33:59;12.80;99.90
1083;DHT22;530;51.448;7.238;2022-09-16T16:36:25;12.70;99.90
1083;DHT22;530;51.448;7.238;2022-09-16T16:38:50;12.80;99.90
1083;DHT22;530;51.448;7.238;2022-09-16T16:41:23;12.80;99.90
1083;DHT22;530;51.448;7.238;2022-09-16T16:43:49;12.70;99.90
1083;DHT22;530;51.448;7.238;2022-09-16T16:46:16;12.70;99.90
1083;DHT22;530;51.448;7.238;2022-09-16T16:48:43;12.60;99.90
1083;DHT22;530;51.448;7.238;2022-09-16T16:51:12;12.60;99.90
1083;DHT22;530;51.448;7.238;2022-09-16T16:53:38;12.60;99.90
1083;DHT22;530;51.448;7.238;2022-09-16T16:56:06;12.70;99.90
1083;DHT22;530;51.448;7.238;2022-09-16T16:58:34;12.90;99.90
1083;DHT22;530;51.448;7.238;2022-09-16T17:01:13;12.90;99.90
1083;DHT22;530;51.448;7.238;2022-09-16T17:03:41;12.90;99.90
1083;DHT22;530;51.448;7.238;2022-09-16T17:06:08;12.80;99.90
1083;DHT22;530;51.448;7.238;2022-09-16T17:08:34;12.80;99.90
1083;DHT22;530;51.448;7.238;2022-09-16T17:13:33;12.70;99.90
1083;DHT22;530;51.448;7.238;2022-09-16T17:15:59;12.70;99.90
1083;DHT22;530;51.448;7.238;2022-09-16T17:18:24;12.70;99.90
1083;DHT22;530;51.448;7.238;2022-09-16T17:20:50;12.60;99.90
1083;DHT22;530;51.448;7.238;2022-09-16T17:23:15;12.60;99.90
1083;DHT22;530;51.448;7.238;2022-09-16T17:25:41;12.60;99.90
1083;DHT22;530;51.448;7.238;2022-09-16T17:28:07;12.60;99.90
1083;DHT22;530;51.448;7.238;2022-09-16T17:30:32;12.70;99.90
1083;DHT22;530;51.448;7.238;2022-09-16T17:32:58;12.70;99.90
1083;DHT22;530;51.448;7.238;2022-09-16T17:35:23;12.70;99.90
1083;DHT22;530;51.448;7.238;2022-09-16T17:37:49;12.70;99.90
1083;DHT22;530;51.448;7.238;2022-09-16T17:40:15;12.70;99.90
1083;DHT22;530;51.448;7.238;2022-09-16T17:42:40;12.70;99.90
1083;DHT22;530;51.448;7.238;2022-09-16T17:45:06;12.70;99.90
1083;DHT22;530;51.448;7.238;2022-09-16T17:47:34;12.60;99.90
1083;DHT22;530;51.448;7.238;2022-09-16T17:49:59;12.50;99.90
1083;DHT22;530;51.448;7.238;2022-09-16T17:52:30;12.40;99.90
1083;DHT22;530;51.448;7.238;2022-09-16T17:54:55;12.40;99.90
1083;DHT22;530;51.448;7.238;2022-09-16T17:57:21;12.40;99.90
1083;DHT22;530;51.448;7.238;2022-09-16T17:59:47;12.50;99.90
1083;DHT22;530;51.448;7.238;2022-09-16T18:02:13;12.50;99.90
1083;DHT22;530;51.448;7.238;2022-09-16T18:04:41;12.50;99.90
1083;DHT22;530;51.448;7.238;2022-09-16T18:07:07;12.50;99.90
1083;DHT22;530;51.448;7.238;2022-09-16T18:09:33;12.50;99.90
1083;DHT22;530;51.448;7.238;2022-09-16T18:11:59;12.60;99.90
1083;DHT22;530;51.448;7.238;2022-09-16T18:14:24;12.70;99.90
1083;DHT22;530;51.448;7.238;2022-09-16T18:16:50;12.70;99.90
1083;DHT22;530;51.448;7.238;2022-09-16T18:19:16;12.70;99.90
1083;DHT22;530;51.448;7.238;2022-09-16T18:21:41;12.60;99.90
1083;DHT22;530;51.448;7.238;2022-09-16T18:24:09;12.60;99.90
1083;DHT22;530;51.448;7.238;2022-09-16T18:26:38;12.60;99.90
1083;DHT22;530;51.448;7.238;2022-09-16T18:29:04;12.60;99.90
1083;DHT22;530;51.448;7.238;2022-09-16T18:31:31;12.70;99.90
1083;DHT22;530;51.448;7.238;2022-09-16T18:33:57;12.70;99.90
1083;DHT22;530;51.448;7.238;2022-09-16T18:36:24;12.80;99.90
1083;DHT22;530;51.448;7.238;2022-09-16T18:38:51;12.80;99.90
1083;DHT22;530;51.448;7.238;2022-09-16T18:41:20;12.80;99.90
1083;DHT22;530;51.448;7.238;2022-09-16T18:43:46;12.80;99.90
1083;DHT22;530;51.448;7.238;2022-09-16T18:46:18;12.80;99.90
1083;DHT22;530;51.448;7.238;2022-09-16T18:48:46;12.70;99.90
1083;DHT22;530;51.448;7.238;2022-09-16T18:51:18;12.80;99.90
1083;DHT22;530;51.448;7.238;2022-09-16T18:53:44;12.80;99.90
1083;DHT22;530;51.448;7.238;2022-09-16T18:56:12;12.80;99.90
1083;DHT22;530;51.448;7.238;2022-09-16T18:58:39;12.70;99.90
1083;DHT22;530;51.448;7.238;2022-09-16T19:01:28;12.80;99.90
1083;DHT22;530;51.448;7.238;2022-09-16T19:03:54;12.70;99.90
1083;DHT22;530;51.448;7.238;2022-09-16T19:06:20;12.80;99.90
1083;DHT22;530;51.448;7.238;2022-09-16T19:08:47;12.90;99.90
1083;DHT22;530;51.448;7.238;2022-09-16T19:11:13;12.80;99.90
1083;DHT22;530;51.448;7.238;2022-09-16T19:13:40;12.80;99.90
1083;DHT22;530;51.448;7.238;2022-09-16T19:16:06;12.80;99.90
1083;DHT22;530;51.448;7.238;2022-09-16T19:18:32;12.80;99.90
1083;DHT22;530;51.448;7.238;2022-09-16T19:20:58;12.90;99.90
1083;DHT22;530;51.448;7.238;2022-09-16T19:23:24;12.90;99.90
1083;DHT22;530;51.448;7.238;2022-09-16T19:25:51;12.80;99.90
1083;DHT22;530;51.448;7.238;2022-09-16T19:28:17;12.80;99.90
1083;DHT22;530;51.448;7.238;2022-09-16T19:30:43;12.80;99.90
1083;DHT22;530;51.448;7.238;2022-09-16T19:33:09;12.90;99.90
1083;DHT22;530;51.448;7.238;2022-09-16T19:35:35;13.00;99.90
1083;DHT22;530;51.448;7.238;2022-09-16T19:38:00;13.00;99.90